Jericho, New Jersey
Current Conditions -  °F | °C
As of 8:54 PM on Saturday 22 Nov 2014 (Local Time) from KPHL Reporting Station
Broken Clouds Broken Clouds  
Wind Chill: 37°   Ceiling: 8500
Heat Index: 43°   Visibility: 10mi
Dew Point: 23°   Wind: 12mph
Humidity: 45%   Direction: 210°SSW
Pressure: 30.28"   Gusts: NA
Location:  39.8266°N, 75.1276°W
Report Text: KPHL 230154Z 21010KT 10SM BKN085 BKN110 06/M05 A3028 RMK AO2 SLP253 T00611050 $
Loading
Personal Weather Stations






























Interactive Weather Map New forecast layout! Learn more

10-Day Weather Forecast

Advertisements
Track Severe Weather on mobile